Time;durP1;ratioP1;P1;durP2;ratioP2;P2;SDS_P1;SDS_P2;PMS_P1;PMS_P2;Temp;Humidity;BMP_temperature;BMP_pressure;BME280_temperature;BME280_humidity;BME280_pressure;Samples;Min_cycle;Max_cycle;Signal;HPM_P1;HPM_P2
2021/09/09 00:01:13;;;;;;;2.58;2.15;;;23.00;43.90;;;;;;4784328;29;20525;-71
2021/09/09 00:03:40;;;;;;;2.72;1.90;;;23.00;43.90;;;;;;4776319;29;20047;-72
2021/09/09 00:06:07;;;;;;;2.38;1.77;;;22.90;43.90;;;;;;4785212;29;20063;-75
2021/09/09 00:08:35;;;;;;;2.63;1.92;;;22.90;44.00;;;;;;4784946;29;20071;-74
2021/09/09 00:11:02;;;;;;;3.47;1.70;;;22.90;44.00;;;;;;4784871;29;20502;-75
2021/09/09 00:13:29;;;;;;;2.10;1.90;;;22.90;44.00;;;;;;4775260;29;20055;-75
2021/09/09 00:15:56;;;;;;;2.80;1.90;;;22.90;44.10;;;;;;4782037;29;20055;-75
2021/09/09 00:18:23;;;;;;;2.53;2.08;;;22.90;44.10;;;;;;4784604;29;20490;-75
2021/09/09 00:20:50;;;;;;;5.20;1.77;;;22.90;44.10;;;;;;4785217;29;20055;-75
2021/09/09 00:23:17;;;;;;;1.63;1.52;;;22.90;44.10;;;;;;4771778;29;20071;-75
2021/09/09 00:25:44;;;;;;;3.38;1.90;;;22.80;44.10;;;;;;4783476;29;20142;-75
2021/09/09 00:28:11;;;;;;;3.28;2.35;;;22.90;44.20;;;;;;4783377;30;20059;-75
2021/09/09 00:30:39;;;;;;;2.25;1.88;;;22.90;44.20;;;;;;4784928;29;20391;-75
2021/09/09 00:33:10;;;;;;;2.47;1.90;;;22.80;44.20;;;;;;4773894;29;20175;-72
2021/09/09 00:35:38;;;;;;;1.75;1.60;;;22.90;44.30;;;;;;4783168;29;20090;-75
2021/09/09 00:38:05;;;;;;;4.80;1.77;;;22.90;44.20;;;;;;4786209;29;20146;-74
2021/09/09 00:40:33;;;;;;;3.22;1.88;;;22.90;44.30;;;;;;4787874;29;20134;-75
2021/09/09 00:43:00;;;;;;;3.03;2.25;;;22.90;44.30;;;;;;4782855;29;20112;-75
2021/09/09 00:45:28;;;;;;;2.25;1.98;;;22.80;44.20;;;;;;4788334;29;20138;-72
2021/09/09 00:47:55;;;;;;;2.50;2.15;;;22.80;44.20;;;;;;4786891;29;20141;-75
2021/09/09 00:50:23;;;;;;;1.63;1.52;;;22.80;44.30;;;;;;4788204;29;20286;-75
2021/09/09 00:52:53;;;;;;;1.92;1.77;;;22.80;44.30;;;;;;4785224;29;20311;-71
2021/09/09 00:55:20;;;;;;;3.75;2.15;;;22.80;44.30;;;;;;4784741;29;20130;-75
2021/09/09 00:57:48;;;;;;;2.70;1.85;;;22.80;44.30;;;;;;4785681;29;20055;-72
2021/09/09 01:00:16;;;;;;;2.30;1.92;;;22.80;44.30;;;;;;4784932;29;20051;-75
2021/09/09 01:06:14;;;;;;;2.35;1.75;;;22.80;44.30;;;;;;4783989;29;20223;-71
2021/09/09 01:08:42;;;;;;;2.35;2.08;;;22.80;44.30;;;;;;4782390;29;20537;-75
2021/09/09 01:11:09;;;;;;;2.30;2.05;;;22.80;44.30;;;;;;4782372;29;20632;-72
2021/09/09 01:13:36;;;;;;;2.38;1.90;;;22.80;44.30;;;;;;4778790;30;20053;-75
2021/09/09 01:16:04;;;;;;;3.20;1.80;;;22.80;44.30;;;;;;4779976;29;20130;-75
2021/09/09 01:18:31;;;;;;;2.53;1.90;;;22.80;44.30;;;;;;4783655;29;20059;-72
2021/09/09 01:20:58;;;;;;;1.92;1.77;;;22.80;44.30;;;;;;4783896;29;20668;-75
2021/09/09 01:26:51;;;;;;;3.28;1.75;;;22.80;44.20;;;;;;4783154;29;20063;-75
2021/09/09 01:29:20;;;;;;;2.25;1.83;;;22.80;44.20;;;;;;4782702;30;20134;-72
2021/09/09 01:31:48;;;;;;;2.10;1.90;;;22.80;44.30;;;;;;4779580;29;20134;-72
2021/09/09 01:34:15;;;;;;;3.28;2.33;;;22.80;44.30;;;;;;4776574;29;20051;-74
2021/09/09 01:36:44;;;;;;;3.03;2.10;;;22.80;44.40;;;;;;4783305;29;20126;-72
2021/09/09 01:39:11;;;;;;;1.95;1.75;;;22.80;44.40;;;;;;4783231;29;20536;-72
2021/09/09 01:41:39;;;;;;;3.65;2.40;;;22.80;44.40;;;;;;4780118;29;20062;-72
2021/09/09 01:44:06;;;;;;;1.92;1.65;;;22.70;44.40;;;;;;4776170;29;20072;-75
2021/09/09 01:46:34;;;;;;;2.03;1.67;;;22.80;44.50;;;;;;4783527;29;20111;-72
2021/09/09 01:49:01;;;;;;;1.80;1.70;;;22.70;44.50;;;;;;4782088;30;20142;-75
2021/09/09 01:52:05;;;;;;;2.20;1.70;;;22.70;44.50;;;;;;4781073;29;20078;-72
2021/09/09 01:54:32;;;;;;;1.85;1.70;;;22.70;44.50;;;;;;4774981;29;20054;-75
2021/09/09 01:56:59;;;;;;;1.70;1.60;;;22.70;44.60;;;;;;4783352;29;20585;-75
2021/09/09 01:59:26;;;;;;;1.77;1.67;;;22.70;44.60;;;;;;4783232;29;20201;-75
2021/09/09 02:01:54;;;;;;;1.75;1.65;;;22.70;44.60;;;;;;4778937;29;20134;-71
2021/09/09 02:04:21;;;;;;;2.58;1.70;;;22.70;44.60;;;;;;4774913;30;20059;-76
2021/09/09 02:06:48;;;;;;;2.22;2.03;;;22.70;44.70;;;;;;4781510;29;20134;-72
2021/09/09 02:09:15;;;;;;;3.30;1.58;;;22.70;44.60;;;;;;4783252;29;20051;-76
2021/09/09 02:11:46;;;;;;;2.22;2.00;;;22.70;44.70;;;;;;4779185;29;20608;-73
2021/09/09 02:14:13;;;;;;;2.30;1.63;;;22.70;44.70;;;;;;4778156;29;20672;-75
2021/09/09 02:16:41;;;;;;;2.40;1.73;;;22.60;44.60;;;;;;4782779;29;20085;-72
2021/09/09 02:19:08;;;;;;;2.05;1.70;;;22.70;44.70;;;;;;4783055;29;20143;-76
2021/09/09 02:21:35;;;;;;;2.53;1.75;;;22.70;44.70;;;;;;4780106;29;20082;-72
2021/09/09 02:24:02;;;;;;;2.33;1.58;;;22.70;44.70;;;;;;4772088;29;20054;-72
2021/09/09 02:26:29;;;;;;;1.98;1.52;;;22.70;44.80;;;;;;4782879;29;20047;-76
2021/09/09 02:28:56;;;;;;;1.50;1.40;;;22.70;44.80;;;;;;4783272;29;20570;-75
2021/09/09 02:31:23;;;;;;;2.10;1.85;;;22.70;44.70;;;;;;4780105;29;20533;-75
2021/09/09 02:33:52;;;;;;;1.98;1.65;;;22.70;44.80;;;;;;4774301;30;20278;-72
2021/09/09 02:36:19;;;;;;;1.92;1.48;;;22.70;44.70;;;;;;4782620;29;20051;-72
2021/09/09 02:38:46;;;;;;;2.35;2.13;;;22.70;44.80;;;;;;4782817;29;20051;-76
2021/09/09 02:41:21;;;;;;;2.58;1.73;;;22.70;44.80;;;;;;4780454;29;20091;-74
2021/09/09 02:43:48;;;;;;;2.13;1.52;;;22.70;44.80;;;;;;4774230;30;20146;-75
2021/09/09 02:46:15;;;;;;;2.03;1.63;;;22.70;44.70;;;;;;4782329;29;20090;-75
2021/09/09 02:48:43;;;;;;;1.65;1.55;;;22.60;44.70;;;;;;4782828;29;20138;-73
2021/09/09 02:51:10;;;;;;;1.67;1.45;;;22.70;44.70;;;;;;4780554;29;20057;-75
2021/09/09 02:53:37;;;;;;;2.75;1.80;;;22.60;44.70;;;;;;4785456;29;20635;-75
2021/09/09 02:56:07;;;;;;;;;;;22.70;44.70;;;;;;4782803;29;20051;-72
2021/09/09 02:58:34;;;;;;;2.42;1.48;;;22.70;44.70;;;;;;4782923;29;20299;-75
2021/09/09 03:01:01;;;;;;;2.22;1.70;;;22.70;44.70;;;;;;4782503;29;20055;-75
2021/09/09 03:03:29;;;;;;;5.22;2.13;;;22.70;44.70;;;;;;4773934;29;20298;-72
2021/09/09 03:05:56;;;;;;;2.53;1.67;;;22.70;44.70;;;;;;4784188;29;20066;-75
2021/09/09 03:08:23;;;;;;;2.22;2.03;;;22.60;44.60;;;;;;4785970;30;20075;-75
2021/09/09 03:10:50;;;;;;;2.40;2.17;;;22.70;44.70;;;;;;4785199;29;20055;-72
2021/09/09 03:13:17;;;;;;;2.10;1.92;;;22.70;44.70;;;;;;4779050;29;20138;-72
2021/09/09 03:15:44;;;;;;;2.35;2.00;;;22.60;44.70;;;;;;4783555;29;20146;-75
2021/09/09 03:18:11;;;;;;;2.58;1.70;;;22.70;44.80;;;;;;4786416;29;20059;-71
2021/09/09 03:20:38;;;;;;;2.75;1.88;;;22.70;44.80;;;;;;4786750;29;20130;-75
2021/09/09 03:23:06;;;;;;;2.60;1.75;;;22.70;44.80;;;;;;4774502;29;20138;-71
2021/09/09 03:25:33;;;;;;;3.53;2.25;;;22.60;44.70;;;;;;4786772;29;20051;-71
2021/09/09 03:28:00;;;;;;;2.08;1.90;;;22.60;44.80;;;;;;4786505;29;20059;-74
2021/09/09 03:30:27;;;;;;;1.70;1.60;;;22.60;44.80;;;;;;4785447;29;20650;-71
2021/09/09 03:32:54;;;;;;;1.90;1.73;;;22.60;44.80;;;;;;4778201;29;20067;-72
2021/09/09 03:35:24;;;;;;;2.03;1.60;;;22.60;44.80;;;;;;4783051;29;20047;-71
2021/09/09 03:37:51;;;;;;;1.92;1.70;;;22.60;44.90;;;;;;4786445;30;20138;-72
2021/09/09 03:40:20;;;;;;;4.95;1.90;;;22.60;44.80;;;;;;4784546;29;20055;-72
2021/09/09 03:42:47;;;;;;;1.65;1.55;;;22.60;44.90;;;;;;4772798;29;20047;-74
2021/09/09 03:45:14;;;;;;;1.75;1.65;;;22.60;44.90;;;;;;4787367;29;20055;-71
2021/09/09 03:47:41;;;;;;;1.75;1.58;;;22.60;45.00;;;;;;4786841;29;20576;-74
2021/09/09 03:50:10;;;;;;;2.30;1.92;;;22.60;45.00;;;;;;4786186;29;20077;-75
2021/09/09 03:53:15;;;;;;;1.70;1.60;;;22.60;45.00;;;;;;4776197;29;20083;-70
2021/09/09 03:55:42;;;;;;;3.10;1.90;;;22.60;45.00;;;;;;4783635;29;20498;-75
2021/09/09 03:58:09;;;;;;;2.40;1.80;;;22.60;45.00;;;;;;4785289;29;20760;-75
2021/09/09 04:00:36;;;;;;;2.17;1.88;;;22.60;45.00;;;;;;4785507;29;20081;-74
2021/09/09 04:03:04;;;;;;;3.03;2.13;;;22.60;45.00;;;;;;4777458;29;20047;-72
2021/09/09 04:05:31;;;;;;;4.40;2.17;;;22.50;45.00;;;;;;4783647;29;20063;-74
2021/09/09 04:07:58;;;;;;;2.55;1.73;;;22.60;45.00;;;;;;4784379;30;20724;-75
2021/09/09 04:10:25;;;;;;;2.10;1.65;;;22.60;45.10;;;;;;4785489;29;20142;-72
2021/09/09 04:13:03;;;;;;;3.58;1.67;;;22.60;45.10;;;;;;4778469;29;20119;-72
2021/09/09 04:15:32;;;;;;;2.22;1.85;;;22.60;45.20;;;;;;4784296;29;20098;-72
2021/09/09 04:18:00;;;;;;;2.92;1.65;;;22.60;45.20;;;;;;4785204;29;20462;-74
2021/09/09 04:20:27;;;;;;;2.40;2.20;;;22.60;45.10;;;;;;4785380;29;20059;-74
2021/09/09 04:22:54;;;;;;;2.83;1.80;;;22.60;45.10;;;;;;4776973;29;20284;-72
2021/09/09 04:25:21;;;;;;;4.38;1.67;;;22.50;45.00;;;;;;4767894;30;20087;-72
2021/09/09 04:27:48;;;;;;;2.47;1.83;;;22.60;45.10;;;;;;4767424;30;20668;-74
2021/09/09 04:30:15;;;;;;;3.17;2.20;;;22.60;45.00;;;;;;4767317;30;20087;-71
2021/09/09 04:32:58;;;;;;;3.42;1.92;;;22.60;45.00;;;;;;4768503;30;20122;-71
2021/09/09 04:35:25;;;;;;;2.58;2.28;;;22.60;45.00;;;;;;4784703;29;20055;-75
2021/09/09 04:37:52;;;;;;;3.00;2.15;;;22.60;45.00;;;;;;4784831;29;20055;-74
2021/09/09 04:40:19;;;;;;;4.53;2.00;;;22.60;44.90;;;;;;4785462;29;20130;-74
2021/09/09 04:42:46;;;;;;;4.22;2.47;;;22.60;44.90;;;;;;4794088;29;20057;-73
2021/09/09 04:45:13;;;;;;;4.40;2.28;;;22.60;44.90;;;;;;4789324;29;20059;-71
2021/09/09 04:47:41;;;;;;;4.22;2.03;;;22.60;44.90;;;;;;4783826;29;20146;-74
2021/09/09 04:50:08;;;;;;;4.45;2.50;;;22.70;44.90;;;;;;4797630;29;20065;-75
2021/09/09 04:52:36;;;;;;;2.60;2.10;;;22.70;44.90;;;;;;4787805;29;20816;-69
2021/09/09 04:55:04;;;;;;;4.32;2.30;;;22.70;44.90;;;;;;4780637;29;20051;-70
2021/09/09 04:57:31;;;;;;;3.47;2.05;;;22.60;44.90;;;;;;4782732;29;20142;-70
2021/09/09 04:59:58;;;;;;;5.15;2.28;;;22.60;44.90;;;;;;4783907;29;20142;-70
2021/09/09 05:02:26;;;;;;;4.30;2.60;;;22.60;44.90;;;;;;4778093;29;20142;-70
2021/09/09 05:04:53;;;;;;;9.00;2.35;;;22.60;44.90;;;;;;4783102;29;20486;-75
2021/09/09 05:07:20;;;;;;;3.25;2.17;;;22.60;44.80;;;;;;4784619;29;20055;-70
2021/09/09 05:09:48;;;;;;;2.67;2.35;;;22.70;44.70;;;;;;4783749;29;20135;-74
2021/09/09 05:12:15;;;;;;;3.00;2.17;;;22.70;44.50;;;;;;4776519;29;20051;-70
2021/09/09 05:14:42;;;;;;;3.40;2.47;;;22.70;44.40;;;;;;4779829;29;20085;-74
2021/09/09 05:17:09;;;;;;;2.22;2.03;;;22.70;44.30;;;;;;4784578;29;20517;-70
2021/09/09 05:19:36;;;;;;;3.47;2.05;;;22.70;44.30;;;;;;4778885;29;20101;-68
2021/09/09 05:22:15;;;;;;;3.10;2.25;;;22.70;44.20;;;;;;4780618;29;20440;-72
2021/09/09 05:24:43;;;;;;;2.72;2.47;;;22.80;44.50;;;;;;4774676;29;20513;-77
2021/09/09 05:27:10;;;;;;;3.08;1.90;;;22.80;44.70;;;;;;4801419;29;20083;-73
2021/09/09 05:29:37;;;;;;;2.60;2.40;;;22.70;44.90;;;;;;4781031;29;20058;-70
2021/09/09 05:32:04;;;;;;;3.75;2.25;;;22.80;45.10;;;;;;4776613;29;20049;-70
2021/09/09 05:34:32;;;;;;;2.35;2.00;;;22.80;45.30;;;;;;4775250;29;20071;-70
2021/09/09 05:36:59;;;;;;;2.60;2.35;;;22.80;45.40;;;;;;4780635;29;20130;-72
2021/09/09 05:39:26;;;;;;;6.60;2.40;;;22.80;45.30;;;;;;4780805;29;20127;-72
2021/09/09 05:41:53;;;;;;;2.83;1.92;;;22.80;45.30;;;;;;4773441;29;20749;-73
2021/09/09 05:44:33;;;;;;;3.88;2.40;;;22.90;45.40;;;;;;4767224;29;20063;-68
2021/09/09 05:47:00;;;;;;;4.35;2.67;;;22.90;45.30;;;;;;4779807;29;20071;-74
2021/09/09 05:49:27;;;;;;;2.63;2.28;;;22.90;45.20;;;;;;4779137;29;20472;-68
2021/09/09 05:52:46;;;;;;;3.05;2.50;;;22.90;45.10;;;;;;4779351;29;20155;-70
2021/09/09 05:55:18;;;;;;;3.17;2.40;;;22.90;44.90;;;;;;4768116;29;20055;-69
2021/09/09 05:57:45;;;;;;;2.40;2.10;;;22.90;44.80;;;;;;4779061;29;20482;-67
2021/09/09 06:00:12;;;;;;;2.45;2.22;;;23.00;44.70;;;;;;4782770;29;20047;-69
2021/09/09 06:02:44;;;;;;;3.08;2.17;;;23.00;44.50;;;;;;4774974;29;20158;-68
2021/09/09 06:05:13;;;;;;;2.90;2.10;;;23.00;44.40;;;;;;4790414;29;20533;-75
2021/09/09 06:07:40;;;;;;;2.67;2.28;;;23.00;44.40;;;;;;4791620;29;20135;-70
2021/09/09 06:10:11;;;;;;;3.05;2.22;;;23.10;44.60;;;;;;4790423;30;20085;-73
2021/09/09 06:12:39;;;;;;;4.38;2.83;;;23.10;44.60;;;;;;4780373;29;20051;-67
2021/09/09 06:15:07;;;;;;;5.38;2.63;;;23.20;44.70;;;;;;4783923;29;20137;-73
2021/09/09 06:17:34;;;;;;;4.82;2.50;;;23.20;44.70;;;;;;4779554;29;20108;-68
2021/09/09 06:20:02;;;;;;;3.83;2.85;;;23.30;44.60;;;;;;4777809;29;20078;-72
2021/09/09 06:22:37;;;;;;;6.00;2.70;;;23.30;44.50;;;;;;4776503;29;20063;-68
2021/09/09 06:25:04;;;;;;;4.82;2.60;;;23.30;44.30;;;;;;4767714;29;20059;-72
2021/09/09 06:27:31;;;;;;;4.53;3.08;;;23.30;44.20;;;;;;4773503;29;20505;-68
2021/09/09 06:29:58;;;;;;;5.72;3.22;;;23.40;44.20;;;;;;4777359;29;20471;-68
2021/09/09 06:32:30;;;;;;;4.72;2.95;;;23.40;44.10;;;;;;4772929;29;20067;-67
2021/09/09 06:34:57;;;;;;;6.75;2.92;;;23.50;44.00;;;;;;4765458;29;20504;-68
2021/09/09 06:37:24;;;;;;;5.32;3.10;;;23.50;43.90;;;;;;4770474;29;20101;-73
2021/09/09 06:39:55;;;;;;;5.25;3.08;;;23.50;43.80;;;;;;4773611;29;20190;-67
2021/09/09 06:42:33;;;;;;;3.38;2.50;;;23.50;43.70;;;;;;4773355;29;20101;-75
2021/09/09 06:45:01;;;;;;;3.92;3.08;;;23.60;43.70;;;;;;4773887;29;20059;-72
2021/09/09 06:47:28;;;;;;;9.45;3.22;;;23.60;43.60;;;;;;4783258;29;20047;-69
2021/09/09 06:49:55;;;;;;;3.25;2.95;;;23.60;43.50;;;;;;4783021;29;20059;-69
2021/09/09 06:52:28;;;;;;;5.95;3.17;;;23.60;43.40;;;;;;4781979;29;20038;-71
2021/09/09 06:55:01;;;;;;;4.82;3.15;;;23.60;43.30;;;;;;4776474;29;20050;-70
2021/09/09 06:57:28;;;;;;;4.22;3.00;;;23.70;43.40;;;;;;4784320;29;20606;-71
2021/09/09 06:59:55;;;;;;;7.25;3.30;;;23.70;43.50;;;;;;4785157;29;20134;-74
2021/09/09 07:02:53;;;;;;;5.93;3.45;;;23.70;43.50;;;;;;4777957;29;20050;-72
2021/09/09 07:05:24;;;;;;;7.28;3.55;;;23.80;43.50;;;;;;4777313;29;20058;-74
2021/09/09 07:07:51;;;;;;;3.47;3.17;;;23.80;43.40;;;;;;4786642;29;20098;-77
2021/09/09 07:10:21;;;;;;;5.40;2.97;;;23.80;43.30;;;;;;4787843;29;20142;-75
2021/09/09 07:12:48;;;;;;;4.50;3.35;;;23.80;43.30;;;;;;4784520;29;20083;-73
2021/09/09 07:15:15;;;;;;;10.82;2.92;;;23.80;43.10;;;;;;4795196;29;20062;-78
2021/09/09 07:17:42;;;;;;;5.75;3.55;;;23.80;43.00;;;;;;4794154;29;20450;-77
2021/09/09 07:20:10;;;;;;;4.07;3.35;;;23.90;42.90;;;;;;4796174;29;20075;-81
2021/09/09 07:22:38;;;;;;;3.80;2.85;;;23.90;42.80;;;;;;4796264;29;20051;-68
2021/09/09 07:25:05;;;;;;;9.98;3.90;;;23.90;42.70;;;;;;4793449;29;20079;-68
2021/09/09 07:27:33;;;;;;;7.78;3.63;;;24.00;42.70;;;;;;4799571;29;20055;-72
2021/09/09 07:30:00;;;;;;;8.02;3.50;;;24.00;42.50;;;;;;4795066;29;20055;-76
2021/09/09 07:32:28;;;;;;;12.63;4.00;;;24.10;42.50;;;;;;4794682;29;20051;-71
2021/09/09 07:34:56;;;;;;;3.65;2.95;;;24.10;42.40;;;;;;4796364;29;20142;-64
2021/09/09 07:37:23;;;;;;;6.47;3.10;;;24.10;42.40;;;;;;4795601;30;20051;-68
2021/09/09 07:39:50;;;;;;;6.95;3.35;;;24.20;42.20;;;;;;4795356;29;20133;-71
2021/09/09 07:42:48;;;;;;;12.07;3.78;;;24.20;42.10;;;;;;4784319;29;20043;-79
2021/09/09 07:45:20;;;;;;;3.67;3.08;;;24.20;42.10;;;;;;4781110;29;20055;-77
2021/09/09 07:47:47;;;;;;;4.60;3.17;;;24.30;42.10;;;;;;4778405;29;20182;-71
2021/09/09 07:50:14;;;;;;;5.30;2.80;;;24.30;42.00;;;;;;4782499;29;20092;-71
2021/09/09 07:53:28;;;;;;;3.47;3.00;;;24.30;42.00;;;;;;4777350;29;20081;-68
2021/09/09 07:55:57;;;;;;;4.20;3.00;;;24.40;42.10;;;;;;4775717;29;20108;-72
2021/09/09 07:58:24;;;;;;;7.57;2.92;;;24.40;42.00;;;;;;4780141;29;20139;-68
2021/09/09 08:00:51;;;;;;;6.38;3.58;;;24.40;42.00;;;;;;4786408;29;20428;-75
2021/09/09 08:07:03;;;;;;;3.47;2.95;;;24.50;42.00;;;;;;4783228;29;20584;-75
2021/09/09 08:09:30;;;;;;;3.55;2.92;;;24.50;41.90;;;;;;4781436;29;20128;-76
2021/09/09 08:11:57;;;;;;;2.50;2.20;;;24.50;41.90;;;;;;4775438;29;20059;-73
2021/09/09 08:14:24;;;;;;;3.35;2.70;;;24.50;41.90;;;;;;4772978;29;20047;-74
2021/09/09 08:16:53;;;;;;;3.35;2.85;;;24.50;41.70;;;;;;4776712;29;20098;-74
2021/09/09 08:19:20;;;;;;;3.90;2.45;;;24.50;41.90;;;;;;4783405;29;20130;-73
2021/09/09 08:21:53;;;;;;;3.15;2.50;;;24.50;41.80;;;;;;4787399;29;20052;-66
2021/09/09 08:24:21;;;;;;;6.63;2.85;;;24.60;41.80;;;;;;4778044;29;20181;-73
2021/09/09 08:26:48;;;;;;;6.10;2.50;;;24.60;41.80;;;;;;4783132;29;20061;-67
2021/09/09 08:29:15;;;;;;;6.63;2.58;;;24.60;41.80;;;;;;4786142;29;20055;-71
2021/09/09 08:31:45;;;;;;;4.25;2.90;;;24.60;41.70;;;;;;4787288;29;20133;-70
2021/09/09 08:34:12;;;;;;;;;;;24.70;41.60;;;;;;4777666;29;20065;-70
2021/09/09 08:36:39;;;;;;;4.60;2.88;;;24.70;41.70;;;;;;4780678;29;19935;-74
2021/09/09 08:39:06;;;;;;;8.13;2.67;;;24.70;41.60;;;;;;4783286;29;20158;-72
2021/09/09 08:41:36;;;;;;;10.13;2.53;;;24.70;41.50;;;;;;4780768;29;20125;-67
2021/09/09 08:44:17;;;;;;;4.80;2.60;;;24.70;41.90;;;;;;4769834;29;20134;-69
2021/09/09 08:46:44;;;;;;;6.20;2.80;;;24.70;41.20;;;;;;4779975;29;20065;-65
2021/09/09 08:49:13;;;;;;;2.67;2.22;;;24.80;41.10;;;;;;4787669;29;20116;-67
2021/09/09 08:51:56;;;;;;;8.25;3.35;;;24.80;41.10;;;;;;4784870;29;20183;-71
2021/09/09 08:54:23;;;;;;;2.40;2.13;;;24.80;40.90;;;;;;4773813;29;20622;-70
2021/09/09 08:56:50;;;;;;;3.80;2.80;;;24.90;40.70;;;;;;4785465;29;20146;-66
2021/09/09 08:59:18;;;;;;;7.88;2.38;;;24.90;40.60;;;;;;4790898;29;20055;-66
2021/09/09 09:02:14;;;;;;;5.80;2.38;;;24.90;40.50;;;;;;4782213;29;20055;-70
2021/09/09 09:05:08;;;;;;;;;;;24.90;40.30;;;;;;4772796;29;20043;-66
2021/09/09 09:07:36;;;;;;;4.75;2.33;;;24.90;40.20;;;;;;4780615;29;19925;-66
2021/09/09 09:10:07;;;;;;;3.08;2.28;;;24.90;40.10;;;;;;4783148;29;20586;-69
2021/09/09 09:12:51;;;;;;;5.38;2.28;;;24.90;39.90;;;;;;4777516;29;20064;-66
2021/09/09 09:15:26;;;;;;;3.55;1.85;;;25.00;39.80;;;;;;4776202;29;20047;-69
2021/09/09 09:18:07;;;;;;;4.03;2.55;;;25.00;39.60;;;;;;4776331;29;20078;-70
2021/09/09 09:20:46;;;;;;;9.23;2.80;;;25.00;39.50;;;;;;4775605;29;20059;-69
2021/09/09 09:23:47;;;;;;;5.90;2.17;;;25.00;39.30;;;;;;4774121;29;20067;-66
2021/09/09 09:26:25;;;;;;;2.10;1.90;;;25.00;39.20;;;;;;4783858;29;20046;-67
2021/09/09 09:28:59;;;;;;;6.95;2.38;;;25.00;39.10;;;;;;4783490;29;20055;-65
2021/09/09 09:31:52;;;;;;;6.38;2.08;;;25.00;39.10;;;;;;4784794;29;20129;-66
2021/09/09 09:34:27;;;;;;;2.10;1.80;;;25.00;39.00;;;;;;4775460;29;20116;-67
2021/09/09 09:36:54;;;;;;;4.95;1.95;;;25.00;38.90;;;;;;4780498;29;20139;-72
2021/09/09 09:39:21;;;;;;;4.05;1.90;;;25.00;38.70;;;;;;4789261;29;20054;-68
2021/09/09 09:45:50;;;;;;;2.42;1.80;;;25.00;38.30;;;;;;4785512;29;20104;-68
2021/09/09 09:48:32;;;;;;;4.65;1.88;;;25.00;38.20;;;;;;4781877;29;20143;-66
2021/09/09 09:51:02;;;;;;;3.53;1.85;;;25.00;38.10;;;;;;4784479;29;20136;-67
2021/09/09 10:04:17;;;;;;;7.57;1.55;;;25.10;38.60;;;;;;5153473;24;20059;-68
2021/09/09 10:06:49;;;;;;;3.20;1.60;;;25.10;38.60;;;;;;4790776;29;20063;-66
2021/09/09 10:09:18;;;;;;;7.28;1.80;;;25.10;38.60;;;;;;4790673;29;20059;-67
2021/09/09 10:11:45;;;;;;;2.60;1.85;;;25.10;38.60;;;;;;4788871;29;20525;-65
2021/09/09 10:14:22;;;;;;;2.60;1.88;;;25.20;38.50;;;;;;4790080;29;20484;-66
2021/09/09 10:16:53;;;;;;;1.73;1.63;;;25.20;38.30;;;;;;4794279;29;20142;-70
2021/09/09 10:19:33;;;;;;;4.15;2.08;;;25.30;38.30;;;;;;4794316;29;20487;-65
2021/09/09 10:22:12;;;;;;;4.50;1.80;;;25.30;38.20;;;;;;4794168;29;20061;-66
2021/09/09 10:25:01;;;;;;;2.15;1.55;;;25.30;38.10;;;;;;4780967;29;20055;-65
2021/09/09 10:27:34;;;;;;;12.00;1.55;;;25.30;37.60;;;;;;4786510;29;20128;-64
2021/09/09 10:30:06;;;;;;;2.60;1.40;;;25.30;37.40;;;;;;4785944;29;20089;-63
2021/09/09 10:35:48;;;;;;;3.03;2.03;;;25.30;37.20;;;;;;4773379;29;20574;-69
2021/09/09 10:38:29;;;;;;;3.20;2.00;;;25.30;37.30;;;;;;4789514;29;20700;-63
2021/09/09 10:40:58;;;;;;;2.35;1.80;;;25.30;37.10;;;;;;4779239;29;20146;-61
2021/09/09 10:43:46;;;;;;;3.22;1.73;;;25.30;37.00;;;;;;4773932;29;20569;-63
2021/09/09 10:46:14;;;;;;;5.13;1.50;;;25.40;36.90;;;;;;4787999;29;20057;-62
2021/09/09 10:48:43;;;;;;;3.45;1.30;;;25.40;36.50;;;;;;4782330;29;20592;-63
2021/09/09 10:51:15;;;;;;;5.45;1.73;;;25.40;36.60;;;;;;4791555;29;20150;-63
2021/09/09 10:53:55;;;;;;;4.90;2.13;;;25.40;36.50;;;;;;4768451;29;20090;-62
2021/09/09 10:56:24;;;;;;;;;;;25.40;36.40;;;;;;4775019;29;20132;-66
2021/09/09 10:59:19;;;;;;;4.22;1.67;;;25.40;36.20;;;;;;4793585;29;20047;-66
2021/09/09 11:01:58;;;;;;;4.10;1.50;;;25.40;36.40;;;;;;4778855;29;20176;-66
2021/09/09 11:04:34;;;;;;;5.40;1.70;;;25.40;36.40;;;;;;4769998;29;20281;-61
2021/09/09 11:07:02;;;;;;;9.23;1.67;;;25.40;36.20;;;;;;4778839;29;20047;-65
2021/09/09 11:09:30;;;;;;;2.78;1.50;;;25.40;36.10;;;;;;4784836;29;20051;-62
2021/09/09 11:12:25;;;;;;;2.47;1.25;;;25.40;36.00;;;;;;4782543;29;20151;-61
2021/09/09 11:15:00;;;;;;;2.53;1.73;;;25.40;35.90;;;;;;4790360;29;20151;-62
2021/09/09 11:17:27;;;;;;;6.38;1.55;;;25.40;35.90;;;;;;4792501;30;20127;-62
2021/09/09 11:20:03;;;;;;;6.38;1.55;;;25.30;35.70;;;;;;4792309;30;20466;-64
2021/09/09 11:22:31;;;;;;;2.38;1.20;;;25.30;35.70;;;;;;4793518;29;20059;-62
2021/09/09 11:24:59;;;;;;;1.80;1.65;;;25.30;35.60;;;;;;4793196;29;20108;-66
2021/09/09 11:27:29;;;;;;;5.40;1.85;;;25.30;35.70;;;;;;4792215;29;20094;-62
2021/09/09 11:29:58;;;;;;;5.65;1.67;;;25.30;35.70;;;;;;4793400;29;20082;-62
2021/09/09 11:32:27;;;;;;;1.98;1.50;;;25.30;35.70;;;;;;4793769;29;20051;-61
2021/09/09 11:35:08;;;;;;;4.85;1.40;;;25.30;35.70;;;;;;4791859;30;20053;-62
2021/09/09 11:37:46;;;;;;;4.28;1.38;;;25.30;35.60;;;;;;4793391;30;20074;-64
2021/09/09 11:40:14;;;;;;;2.63;1.45;;;25.30;35.50;;;;;;4792668;29;20055;-64
2021/09/09 11:42:42;;;;;;;1.52;1.35;;;25.20;35.50;;;;;;4792994;29;20051;-63
2021/09/09 11:45:09;;;;;;;3.20;1.40;;;25.30;35.60;;;;;;4791589;30;20142;-64
2021/09/09 11:47:36;;;;;;;3.80;1.33;;;25.30;35.60;;;;;;4793330;30;20067;-63
2021/09/09 11:50:05;;;;;;;1.45;1.20;;;25.30;35.90;;;;;;4792560;30;20104;-65
2021/09/09 11:52:34;;;;;;;3.10;1.70;;;25.30;36.00;;;;;;4793454;29;20497;-63
2021/09/09 11:55:15;;;;;;;2.47;1.60;;;25.30;36.20;;;;;;4793130;29;20139;-63
2021/09/09 11:57:44;;;;;;;4.68;1.90;;;25.40;36.20;;;;;;4792775;29;20138;-63
2021/09/09 12:00:14;;;;;;;2.78;1.30;;;25.50;36.20;;;;;;4793172;29;20051;-68
2021/09/09 12:02:44;;;;;;;4.90;1.50;;;25.50;36.00;;;;;;4793008;29;20489;-64
2021/09/09 12:05:15;;;;;;;2.67;1.30;;;25.60;35.90;;;;;;4793883;29;20122;-65
2021/09/09 12:07:44;;;;;;;4.22;1.42;;;25.60;35.70;;;;;;4793617;29;20051;-65
2021/09/09 12:10:13;;;;;;;2.65;1.33;;;25.60;35.50;;;;;;4794067;29;20108;-63
2021/09/09 12:12:40;;;;;;;2.95;1.17;;;25.70;35.20;;;;;;4793638;29;20047;-63
2021/09/09 12:15:09;;;;;;;1.55;1.25;;;25.70;35.30;;;;;;4792133;30;20153;-63
2021/09/09 12:17:38;;;;;;;2.35;1.48;;;25.70;35.30;;;;;;4791827;30;20094;-63
2021/09/09 12:20:10;;;;;;;1.42;1.33;;;25.80;35.10;;;;;;4792396;29;20146;-63
2021/09/09 12:22:50;;;;;;;3.20;1.40;;;25.80;34.90;;;;;;4792313;30;20142;-65
2021/09/09 12:25:39;;;;;;;5.90;1.48;;;25.80;34.80;;;;;;4791455;30;20071;-67
2021/09/09 12:28:13;;;;;;;3.53;1.75;;;25.80;34.70;;;;;;4792779;29;20062;-70
2021/09/09 12:30:53;;;;;;;2.60;1.25;;;25.90;34.70;;;;;;4792604;29;20132;-64
2021/09/09 12:33:35;;;;;;;1.40;1.15;;;25.90;34.70;;;;;;4792444;29;20138;-64
2021/09/09 12:36:15;;;;;;;5.55;1.60;;;25.90;34.70;;;;;;4792355;29;20537;-64
2021/09/09 12:38:58;;;;;;;5.95;1.27;;;26.00;34.60;;;;;;4805984;29;20057;-67
2021/09/09 12:41:30;;;;;;;3.13;1.48;;;26.00;34.80;;;;;;4792948;29;20146;-64
2021/09/09 12:44:19;;;;;;;4.28;1.80;;;26.00;34.90;;;;;;4791964;30;20398;-66
2021/09/09 12:46:48;;;;;;;3.83;1.38;;;26.00;35.10;;;;;;4791461;30;20142;-66
2021/09/09 12:49:26;;;;;;;2.88;1.40;;;26.00;34.90;;;;;;4799060;29;20058;-63
2021/09/09 12:52:12;;;;;;;3.28;1.48;;;26.10;35.10;;;;;;4810286;29;20057;-64
2021/09/09 12:54:45;;;;;;;2.28;1.30;;;26.10;35.10;;;;;;4809775;29;20371;-66
2021/09/09 12:57:29;;;;;;;2.67;1.75;;;26.10;35.10;;;;;;4810432;29;20100;-70
2021/09/09 12:59:56;;;;;;;6.97;3.20;;;26.10;34.90;;;;;;4810523;29;20058;-66
2021/09/09 13:02:23;;;;;;;5.28;2.90;;;26.10;34.90;;;;;;4811551;29;20145;-67
2021/09/09 13:04:51;;;;;;;4.43;2.20;;;26.10;34.90;;;;;;4811237;29;20051;-66
2021/09/09 13:07:18;;;;;;;4.68;1.70;;;26.10;35.00;;;;;;4810005;29;20051;-68
2021/09/09 13:10:00;;;;;;;3.28;1.88;;;26.10;34.60;;;;;;4809835;29;20084;-62
2021/09/09 13:12:45;;;;;;;2.05;1.45;;;26.00;34.40;;;;;;4783070;29;20051;-65
2021/09/09 13:15:12;;;;;;;5.80;1.50;;;26.00;34.30;;;;;;4775276;29;20137;-67
2021/09/09 13:17:45;;;;;;;3.55;1.80;;;25.90;34.30;;;;;;4764314;29;20063;-65
2021/09/09 13:20:13;;;;;;;5.40;1.73;;;25.90;34.20;;;;;;4781170;29;20051;-66
2021/09/09 13:22:40;;;;;;;5.70;1.77;;;25.90;34.40;;;;;;4775509;29;20475;-66
2021/09/09 13:25:08;;;;;;;8.60;1.80;;;25.80;34.20;;;;;;4789536;29;20086;-70
2021/09/09 13:27:35;;;;;;;5.07;1.38;;;25.80;34.30;;;;;;4771415;29;20461;-64
2021/09/09 13:30:02;;;;;;;7.63;1.23;;;25.70;34.50;;;;;;4775318;29;20151;-72
2021/09/09 13:36:12;;;;;;;5.60;1.63;;;25.80;35.80;;;;;;4768563;29;20051;-73
2021/09/09 13:38:39;;;;;;;8.15;1.67;;;25.70;36.10;;;;;;4774981;29;20465;-70